Canastota, New York
Current Conditions -  °F | °C
As of 7:54 PM on Tuesday 27 Jan 2015 (Local Time) from KSYR Reporting Station
Broken Clouds Broken Clouds  
Wind Chill: -4°   Ceiling: 22000
Heat Index: 10°   Visibility: 10mi
Dew Point: -5°   Wind: 10mph
Humidity: 51%   Direction: 330°NNW
Pressure: 30.04"   Gusts: NA
Location:  43.08°N, 75.75°W
Report Text: KSYR 280054Z 33009KT 10SM BKN220 BKN250 M12/M21 A3004 RMK AO2 SLP177 T11221206 $
Loading
Personal Weather Stations






























Interactive Weather Map New forecast layout! Learn more

10-Day Weather Forecast

Advertisements
Track Severe Weather on mobile